createdAt,value
2019-01-25T00:02:21.767Z,37.05
2019-01-25T00:04:50.255Z,37.70
2019-01-25T00:07:18.843Z,37.83
2019-01-25T00:09:47.312Z,39.60
2019-01-25T00:12:15.768Z,38.55
2019-01-25T00:14:44.267Z,40.12
2019-01-25T00:17:31.983Z,39.55
2019-01-25T00:20:00.696Z,37.42
2019-01-25T00:22:29.147Z,37.08
2019-01-25T00:24:57.662Z,36.90
2019-01-25T00:27:26.194Z,39.13
2019-01-25T00:29:54.656Z,37.70
2019-01-25T00:32:23.201Z,39.98
2019-01-25T00:34:51.707Z,37.85
2019-01-25T00:37:20.264Z,37.35
2019-01-25T00:39:48.745Z,41.37
2019-01-25T00:42:17.212Z,36.60
2019-01-25T00:44:45.710Z,37.83
2019-01-25T00:47:14.189Z,37.00
2019-01-25T00:49:42.706Z,40.38
2019-01-25T00:52:11.162Z,37.33
2019-01-25T00:54:39.627Z,38.10
2019-01-25T00:57:08.128Z,36.68
2019-01-25T00:59:36.697Z,35.75
2019-01-25T01:02:05.144Z,37.28
2019-01-25T01:04:33.630Z,36.00
2019-01-25T01:07:02.141Z,36.70
2019-01-25T01:09:30.622Z,37.30
2019-01-25T01:11:59.127Z,37.13
2019-01-25T01:14:27.579Z,37.53
2019-01-25T01:16:56.162Z,37.55
2019-01-25T01:19:24.667Z,36.10
2019-01-25T01:21:53.234Z,34.38
2019-01-25T01:24:21.678Z,33.63
2019-01-25T01:26:50.176Z,34.67
2019-01-25T01:29:18.675Z,33.23
2019-01-25T01:31:47.157Z,33.70
2019-01-25T01:34:15.680Z,34.88
2019-01-25T01:36:44.185Z,33.75
2019-01-25T01:39:12.642Z,33.95
2019-01-25T01:41:41.118Z,34.73
2019-01-25T01:44:09.666Z,35.10
2019-01-25T01:46:38.139Z,32.33
2019-01-25T01:49:06.619Z,31.17
2019-01-25T01:51:35.094Z,32.17
2019-01-25T01:54:03.553Z,31.48
2019-01-25T01:56:32.069Z,33.18
2019-01-25T01:59:00.602Z,31.68
2019-01-25T02:01:29.135Z,34.27
2019-01-25T02:03:57.624Z,35.00
2019-01-25T02:06:26.106Z,34.65
2019-01-25T02:08:54.573Z,33.02
2019-01-25T02:11:23.728Z,34.00
2019-01-25T02:13:52.241Z,30.68
2019-01-25T02:16:20.700Z,32.03
2019-01-25T02:18:49.148Z,33.05
2019-01-25T02:21:17.653Z,30.45
2019-01-25T02:23:46.098Z,31.15
2019-01-25T02:26:14.561Z,34.03
2019-01-25T02:28:43.085Z,30.60
2019-01-25T02:31:11.543Z,32.28
2019-01-25T02:33:40.000Z,30.65
2019-01-25T02:36:08.445Z,30.30
2019-01-25T02:38:36.965Z,32.20
2019-01-25T02:41:05.396Z,30.25
2019-01-25T02:43:33.853Z,28.87
2019-01-25T02:46:02.408Z,29.48
2019-01-25T02:48:30.904Z,29.72
2019-01-25T02:50:59.359Z,29.75
2019-01-25T02:53:27.955Z,27.77
2019-01-25T02:55:56.408Z,28.42
2019-01-25T02:58:24.863Z,27.30
2019-01-25T03:00:53.367Z,27.80
2019-01-25T03:03:21.825Z,29.18
2019-01-25T03:05:50.286Z,30.32
2019-01-25T03:08:18.842Z,30.55
2019-01-25T03:10:47.479Z,28.90
2019-01-25T03:13:16.502Z,30.57
2019-01-25T03:15:45.104Z,30.60
2019-01-25T03:18:13.587Z,27.75
2019-01-25T03:20:42.005Z,29.40
2019-01-25T03:23:10.550Z,30.17
2019-01-25T03:25:39.031Z,27.40
2019-01-25T03:28:07.610Z,30.10
2019-01-25T03:30:36.096Z,29.80
2019-01-25T03:33:04.575Z,30.43
2019-01-25T03:35:33.071Z,29.75
2019-01-25T03:38:01.596Z,29.18
2019-01-25T03:40:30.137Z,27.70
2019-01-25T03:42:59.291Z,29.18
2019-01-25T03:45:28.434Z,29.27
2019-01-25T03:47:57.025Z,28.07
2019-01-25T03:50:28.903Z,26.95
2019-01-25T03:52:58.044Z,29.87
2019-01-25T03:55:33.077Z,26.00
2019-01-25T03:58:03.986Z,25.75
2019-01-25T04:00:36.559Z,23.67
2019-01-25T04:03:07.091Z,26.30
2019-01-25T04:05:35.616Z,26.07
2019-01-25T04:08:05.018Z,23.42
2019-01-25T04:10:33.431Z,24.27
2019-01-25T04:13:01.887Z,24.95
2019-01-25T04:15:31.894Z,24.67
2019-01-25T04:18:00.311Z,25.52
2019-01-25T04:20:29.761Z,25.10
2019-01-25T04:22:58.258Z,27.25
2019-01-25T04:25:26.714Z,28.55
2019-01-25T04:27:55.170Z,28.38
2019-01-25T04:30:25.239Z,27.98
2019-01-25T04:32:53.686Z,29.87
2019-01-25T04:35:22.202Z,28.60
2019-01-25T04:37:50.688Z,25.97
2019-01-25T04:40:19.987Z,29.75
2019-01-25T04:42:48.566Z,29.77
2019-01-25T04:45:18.441Z,30.05
2019-01-25T04:47:47.579Z,29.12
2019-01-25T04:50:19.171Z,32.75
2019-01-25T04:52:47.641Z,29.85
2019-01-25T04:55:20.919Z,31.35
2019-01-25T04:57:49.405Z,28.57
2019-01-25T05:00:19.715Z,31.35
2019-01-25T05:02:52.393Z,31.40
2019-01-25T05:05:20.928Z,32.40
2019-01-25T05:07:50.171Z,28.57
2019-01-25T05:10:18.654Z,28.60
2019-01-25T05:12:49.147Z,28.83
2019-01-25T05:15:17.565Z,29.60
2019-01-25T05:17:49.093Z,31.80
2019-01-25T05:20:17.551Z,29.75
2019-01-25T05:22:47.485Z,28.75
2019-01-25T05:25:19.061Z,30.12
2019-01-25T05:27:47.580Z,29.30
2019-01-25T05:30:16.034Z,27.93
2019-01-25T05:32:44.614Z,30.37
2019-01-25T05:35:13.192Z,27.55
2019-01-25T05:38:00.920Z,28.50
2019-01-25T05:40:29.403Z,26.65
2019-01-25T05:42:57.860Z,25.92
2019-01-25T05:45:26.320Z,24.87
2019-01-25T05:47:54.812Z,27.70
2019-01-25T05:50:23.328Z,24.30
2019-01-25T05:52:51.810Z,27.60
2019-01-25T05:55:21.830Z,23.67
2019-01-25T05:57:52.674Z,24.43
2019-01-25T06:00:32.129Z,24.47
2019-01-25T06:03:07.935Z,24.32
2019-01-25T06:05:36.389Z,24.40
2019-01-25T06:08:07.989Z,22.77
2019-01-25T06:10:36.577Z,23.80
2019-01-25T06:13:05.044Z,23.52
2019-01-25T06:15:33.530Z,24.18
2019-01-25T06:18:03.309Z,22.45
2019-01-25T06:20:31.733Z,24.23
2019-01-25T06:23:00.312Z,22.48
2019-01-25T06:25:28.893Z,25.85
2019-01-25T06:27:57.330Z,26.02
2019-01-25T06:30:25.828Z,26.50
2019-01-25T06:32:54.496Z,24.07
2019-01-25T06:35:23.575Z,22.95
2019-01-25T06:37:52.032Z,24.55
2019-01-25T06:40:20.599Z,25.43
2019-01-25T06:42:49.074Z,29.00
2019-01-25T06:45:17.526Z,25.40
2019-01-25T06:47:46.041Z,23.12
2019-01-25T06:50:14.479Z,24.75
2019-01-25T06:52:42.940Z,26.50
2019-01-25T06:55:11.543Z,25.43
2019-01-25T06:57:44.780Z,31.37
2019-01-25T07:00:15.630Z,26.10
2019-01-25T07:02:44.126Z,27.67
2019-01-25T07:05:12.782Z,28.85
2019-01-25T07:07:42.134Z,27.42
2019-01-25T07:10:15.069Z,29.70
2019-01-25T07:13:02.783Z,31.35
2019-01-25T07:15:31.386Z,31.42
2019-01-25T07:17:59.867Z,31.48
2019-01-25T07:20:28.314Z,33.65
2019-01-25T07:22:56.826Z,32.55
2019-01-25T07:42:48.612Z,31.97
2019-01-25T07:45:17.255Z,31.97
2019-01-25T07:47:45.718Z,31.68
2019-01-25T07:50:14.309Z,31.93
2019-01-25T07:52:42.751Z,35.15
2019-01-25T07:55:12.646Z,32.17
2019-01-25T07:57:41.933Z,32.53
2019-01-25T08:00:12.275Z,33.10
2019-01-25T08:02:40.821Z,31.50
2019-01-25T08:05:10.686Z,33.33
2019-01-25T08:07:40.184Z,31.35
2019-01-25T08:10:10.875Z,30.97
2019-01-25T08:12:39.280Z,32.67
2019-01-25T08:15:09.239Z,34.85
2019-01-25T08:17:37.696Z,37.70
2019-01-25T08:20:07.666Z,33.90
2019-01-25T08:22:36.119Z,34.90
2019-01-25T08:25:34.725Z,32.63
2019-01-25T08:28:03.930Z,32.48
2019-01-25T08:30:32.517Z,32.67
2019-01-25T08:33:01.009Z,37.42
2019-01-25T08:35:29.578Z,33.55
2019-01-25T08:37:58.046Z,33.60
2019-01-25T08:40:26.540Z,35.17
2019-01-25T08:42:54.996Z,32.25
2019-01-25T08:45:23.464Z,33.55
2019-01-25T08:47:51.899Z,32.55
2019-01-25T08:50:21.945Z,33.10
2019-01-25T08:52:50.521Z,34.43
2019-01-25T08:55:21.330Z,35.52
2019-01-25T08:57:49.761Z,34.58
2019-01-25T09:00:21.002Z,33.23
2019-01-25T09:02:49.462Z,34.00
2019-01-25T09:05:19.338Z,33.85
2019-01-25T09:07:47.923Z,33.60
2019-01-25T09:10:18.143Z,33.88
2019-01-25T09:12:46.657Z,32.73
2019-01-25T09:15:19.242Z,32.05
2019-01-25T09:17:47.675Z,31.05
2019-01-25T09:20:17.701Z,33.38
2019-01-25T09:22:46.181Z,33.00
2019-01-25T09:25:14.679Z,33.98
2019-01-25T09:27:43.247Z,34.48
2019-01-25T09:30:16.123Z,35.20
2019-01-25T09:32:44.567Z,31.50
2019-01-25T09:35:13.725Z,32.70
2019-01-25T09:37:42.235Z,32.07
2019-01-25T09:40:12.204Z,33.63
2019-01-25T09:42:40.668Z,33.17
2019-01-25T09:45:10.805Z,31.73
2019-01-25T09:47:39.286Z,31.93
2019-01-25T09:50:09.304Z,32.03
2019-01-25T09:52:37.819Z,31.70
2019-01-25T09:55:09.632Z,31.40
2019-01-25T09:57:38.540Z,32.10
2019-01-25T10:00:08.538Z,31.37
2019-01-25T10:02:37.034Z,30.43
2019-01-25T10:05:06.844Z,31.07
2019-01-25T10:07:35.430Z,31.80
2019-01-25T10:10:06.848Z,30.73
2019-01-25T10:12:43.089Z,32.40
2019-01-25T10:15:08.963Z,32.80
2019-01-25T10:17:37.854Z,30.90
2019-01-25T10:20:09.600Z,33.95
2019-01-25T10:22:38.503Z,32.25
2019-01-25T10:25:10.263Z,31.70
2019-01-25T10:27:39.254Z,32.05
2019-01-25T10:30:16.883Z,31.68
2019-01-25T10:32:45.842Z,34.10
2019-01-25T10:35:15.449Z,33.48
2019-01-25T10:37:44.341Z,32.30
2019-01-25T10:40:16.409Z,32.05
2019-01-25T10:42:52.738Z,33.25
2019-01-25T10:45:24.303Z,31.73
2019-01-25T10:47:53.222Z,30.92
2019-01-25T10:50:22.208Z,30.57
2019-01-25T10:52:50.793Z,33.15
2019-01-25T10:55:19.256Z,30.57
2019-01-25T10:57:47.708Z,31.00
2019-01-25T11:00:21.765Z,33.75
2019-01-25T11:02:57.746Z,31.57
2019-01-25T11:05:24.359Z,32.15
2019-01-25T11:07:54.127Z,29.95
2019-01-25T11:10:23.062Z,33.30
2019-01-25T11:12:51.953Z,31.70
2019-01-25T11:15:24.014Z,31.85
2019-01-25T11:17:52.921Z,30.82
2019-01-25T11:20:24.895Z,29.48
2019-01-25T11:22:54.581Z,30.27
2019-01-25T11:25:29.413Z,31.62
2019-01-25T11:27:58.301Z,30.80
2019-01-25T11:30:27.171Z,31.20
2019-01-25T11:32:56.082Z,30.50
2019-01-25T11:35:25.617Z,32.33
2019-01-25T11:37:55.298Z,29.52
2019-01-25T11:40:35.964Z,32.95
2019-01-25T11:43:08.933Z,29.80
2019-01-25T11:45:35.386Z,31.10
2019-01-25T11:48:07.124Z,32.17
2019-01-25T11:50:36.034Z,30.45
2019-01-25T11:53:05.027Z,34.10
2019-01-25T11:55:33.519Z,30.32
2019-01-25T11:58:02.091Z,30.62
2019-01-25T12:00:31.287Z,31.12
2019-01-25T12:02:59.735Z,29.98
2019-01-25T12:05:28.223Z,30.43
2019-01-25T12:07:56.732Z,31.37
2019-01-25T12:10:26.647Z,31.17
2019-01-25T12:12:56.768Z,31.48
2019-01-25T12:15:25.181Z,33.18
2019-01-25T12:17:56.507Z,31.07
2019-01-25T12:20:26.510Z,30.12
2019-01-25T12:22:54.945Z,30.77
2019-01-25T12:25:23.472Z,32.58
2019-01-25T12:27:52.014Z,31.80
2019-01-25T12:30:25.042Z,31.30
2019-01-25T12:32:53.515Z,31.15
2019-01-25T12:35:22.799Z,31.80
2019-01-25T12:37:51.252Z,33.00
2019-01-25T12:40:21.113Z,31.60
2019-01-25T12:42:49.703Z,31.48
2019-01-25T12:45:22.687Z,49.38
2019-01-25T12:47:51.100Z,38.08
2019-01-25T12:50:21.071Z,31.25
2019-01-25T12:52:49.524Z,32.73
2019-01-25T12:55:17.980Z,33.78
2019-01-25T12:57:46.527Z,33.30
2019-01-25T13:00:16.441Z,32.33
2019-01-25T13:02:44.861Z,34.18
2019-01-25T13:05:17.967Z,30.20
2019-01-25T13:07:46.419Z,32.42
2019-01-25T13:10:19.072Z,30.17
2019-01-25T13:12:47.756Z,32.00
2019-01-25T13:15:16.225Z,31.95
2019-01-25T13:17:44.821Z,31.77
2019-01-25T13:20:20.539Z,30.72
2019-01-25T13:22:49.056Z,30.77
2019-01-25T13:25:17.535Z,29.87
2019-01-25T13:27:46.732Z,31.62
2019-01-25T13:30:16.954Z,32.03
2019-01-25T13:32:45.848Z,32.98
2019-01-25T13:35:14.429Z,31.95
2019-01-25T13:37:42.942Z,33.55
2019-01-25T13:40:15.647Z,30.65
2019-01-25T13:42:44.091Z,30.75
2019-01-25T13:45:13.687Z,30.15
2019-01-25T13:47:42.875Z,29.92
2019-01-25T13:50:12.689Z,29.87
2019-01-25T13:52:41.373Z,29.75
2019-01-25T13:55:11.494Z,30.40
2019-01-25T13:57:40.878Z,29.72
2019-01-25T14:00:10.848Z,29.70
2019-01-25T14:02:39.295Z,30.20
2019-01-25T14:05:09.510Z,28.87
2019-01-25T14:07:38.104Z,28.77
2019-01-25T14:10:08.012Z,29.75
2019-01-25T14:12:36.432Z,29.42
2019-01-25T14:15:06.841Z,30.12
2019-01-25T14:17:35.323Z,29.92
2019-01-25T14:20:05.243Z,27.10
2019-01-25T14:22:33.698Z,30.40
2019-01-25T14:25:02.187Z,29.02
2019-01-25T14:27:30.642Z,29.45
2019-01-25T14:29:59.104Z,29.42
2019-01-25T14:32:27.628Z,27.30
2019-01-25T14:34:56.082Z,28.83
2019-01-25T14:37:24.581Z,31.27
2019-01-25T14:39:53.061Z,28.55
2019-01-25T14:42:21.543Z,28.85
2019-01-25T14:44:50.045Z,31.02
2019-01-25T14:47:18.542Z,30.32
2019-01-25T14:49:47.091Z,28.20
2019-01-25T14:52:15.543Z,29.20
2019-01-25T14:54:44.047Z,28.45
2019-01-25T14:57:12.504Z,30.08
2019-01-25T14:59:40.959Z,28.17
2019-01-25T15:02:09.477Z,30.37
2019-01-25T15:04:37.976Z,30.80
2019-01-25T15:07:06.478Z,29.30
2019-01-25T15:09:34.974Z,29.57
2019-01-25T15:12:03.720Z,28.92
2019-01-25T15:14:32.215Z,27.95
2019-01-25T15:17:00.667Z,26.93
2019-01-25T15:19:29.122Z,28.85
2019-01-25T15:21:57.563Z,29.30
2019-01-25T15:24:26.068Z,28.83
2019-01-25T15:26:54.523Z,29.40
2019-01-25T15:29:22.983Z,27.37
2019-01-25T15:31:51.678Z,30.35
2019-01-25T15:34:20.128Z,29.50
2019-01-25T15:36:48.571Z,28.38
2019-01-25T15:39:17.161Z,30.85
2019-01-25T15:41:45.626Z,27.62
2019-01-25T15:44:14.079Z,31.35
2019-01-25T15:46:42.575Z,28.67
2019-01-25T15:49:11.040Z,29.63
2019-01-25T15:51:39.527Z,25.85
2019-01-25T15:54:07.989Z,28.57
2019-01-25T15:56:36.441Z,29.35
2019-01-25T15:59:04.895Z,26.35
2019-01-25T16:01:33.395Z,27.95
2019-01-25T16:04:01.851Z,27.20
2019-01-25T16:06:30.417Z,27.85
2019-01-25T16:08:58.997Z,30.85
2019-01-25T16:11:27.471Z,27.32
2019-01-25T16:13:55.927Z,27.42
2019-01-25T16:16:24.434Z,28.77
2019-01-25T16:18:52.894Z,26.57
2019-01-25T16:21:21.340Z,27.48
2019-01-25T16:23:49.883Z,27.37
2019-01-25T16:26:18.292Z,27.45
2019-01-25T16:28:46.846Z,26.40
2019-01-25T16:31:15.351Z,26.48
2019-01-25T16:33:43.805Z,27.25
2019-01-25T16:36:12.289Z,29.57
2019-01-25T16:38:40.768Z,27.05
2019-01-25T16:41:09.862Z,27.07
2019-01-25T16:43:38.304Z,25.72
2019-01-25T16:46:06.897Z,25.00
2019-01-25T16:48:35.343Z,25.25
2019-01-25T16:51:03.789Z,27.45
2019-01-25T16:53:32.282Z,25.55
2019-01-25T16:56:00.735Z,27.58
2019-01-25T16:58:29.286Z,24.82
2019-01-25T17:00:57.768Z,26.70
2019-01-25T17:03:26.212Z,25.90
2019-01-25T17:05:54.661Z,24.98
2019-01-25T17:08:23.351Z,26.60
2019-01-25T17:10:51.800Z,26.00
2019-01-25T17:13:20.244Z,23.22
2019-01-25T17:15:48.744Z,26.15
2019-01-25T17:18:17.199Z,25.85
2019-01-25T17:20:45.642Z,25.95
2019-01-25T17:23:14.146Z,24.25
2019-01-25T17:25:42.592Z,26.05
2019-01-25T17:28:11.043Z,27.15
2019-01-25T17:30:39.572Z,25.20
2019-01-25T17:33:08.011Z,33.42
2019-01-25T17:35:36.461Z,27.48
2019-01-25T17:38:04.981Z,27.75
2019-01-25T17:40:34.885Z,28.07
2019-01-25T17:43:03.331Z,24.00
2019-01-25T17:45:31.830Z,26.45
2019-01-25T17:48:00.278Z,27.62
2019-01-25T17:50:28.740Z,29.27
2019-01-25T17:52:57.258Z,27.82
2019-01-25T17:55:25.709Z,28.05
2019-01-25T17:57:54.369Z,26.33
2019-01-25T18:00:28.387Z,28.10
2019-01-25T18:03:02.019Z,28.15
2019-01-25T18:05:30.546Z,26.97
2019-01-25T18:07:59.051Z,28.07
2019-01-25T18:10:27.503Z,29.32
2019-01-25T18:12:55.958Z,27.73
2019-01-25T18:15:29.564Z,30.62
2019-01-25T18:17:58.473Z,25.77
2019-01-25T18:20:26.923Z,26.33
2019-01-25T18:22:55.417Z,29.27
2019-01-25T18:25:25.342Z,28.12
2019-01-25T18:27:55.598Z,29.50
2019-01-25T18:30:26.361Z,28.83
2019-01-25T18:32:55.024Z,29.07
2019-01-25T18:35:23.462Z,28.98
2019-01-25T18:37:52.102Z,29.37
2019-01-25T18:40:20.609Z,30.80
2019-01-25T18:42:49.057Z,27.13
2019-01-25T18:45:17.519Z,28.47
2019-01-25T18:47:46.012Z,29.90
2019-01-25T18:50:15.359Z,28.38
2019-01-25T18:52:43.807Z,27.42
2019-01-25T18:55:13.770Z,26.33
2019-01-25T18:57:42.222Z,28.10
2019-01-25T19:00:12.134Z,26.55
2019-01-25T19:02:40.625Z,25.57
2019-01-25T19:05:09.579Z,24.57
2019-01-25T19:07:38.028Z,26.48
2019-01-25T19:10:10.930Z,24.80
2019-01-25T19:12:39.372Z,25.43
2019-01-25T19:15:09.285Z,26.42
2019-01-25T19:17:38.008Z,25.88
2019-01-25T19:20:10.901Z,27.15
2019-01-25T19:22:39.347Z,25.12
2019-01-25T19:25:08.940Z,26.95
2019-01-25T19:27:37.571Z,27.17
2019-01-25T19:30:07.712Z,26.85
2019-01-25T19:32:36.199Z,27.32
2019-01-25T19:35:06.114Z,27.98
2019-01-25T19:37:34.661Z,26.60
2019-01-25T19:40:03.210Z,30.10
2019-01-25T19:42:31.969Z,27.90
2019-01-25T19:45:00.663Z,29.20
2019-01-25T19:47:29.055Z,29.18
2019-01-25T19:49:57.863Z,29.77
2019-01-25T19:52:26.318Z,29.35
2019-01-25T19:54:55.072Z,30.20
2019-01-25T19:57:23.775Z,26.30
2019-01-25T19:59:52.325Z,29.32
2019-01-25T20:02:20.856Z,28.98
2019-01-25T20:04:49.496Z,27.73
2019-01-25T20:07:18.034Z,27.73
2019-01-25T20:09:46.484Z,26.15
2019-01-25T20:12:14.978Z,28.60
2019-01-25T20:14:43.481Z,27.07
2019-01-25T20:17:11.891Z,30.72
2019-01-25T20:19:40.442Z,27.30
2019-01-25T20:22:08.924Z,28.65
2019-01-25T20:24:37.417Z,30.37
2019-01-25T20:27:05.907Z,27.10
2019-01-25T20:29:34.390Z,26.87
2019-01-25T20:32:02.951Z,27.32
2019-01-25T20:34:31.446Z,25.80
2019-01-25T20:36:59.899Z,23.60
2019-01-25T20:39:28.497Z,24.20
2019-01-25T20:41:56.983Z,27.30
2019-01-25T20:44:26.151Z,22.50
2019-01-25T20:46:54.586Z,22.50
2019-01-25T20:49:23.092Z,23.87
2019-01-25T20:51:51.544Z,24.98
2019-01-25T20:54:19.996Z,24.00
2019-01-25T20:56:48.582Z,25.80
2019-01-25T20:59:17.042Z,25.10
2019-01-25T21:02:04.911Z,22.65
2019-01-25T21:04:33.391Z,24.75
2019-01-25T21:07:01.900Z,21.77
2019-01-25T21:09:30.495Z,24.07
2019-01-25T21:11:59.005Z,23.70
2019-01-25T21:14:27.520Z,22.62
2019-01-25T21:16:56.091Z,22.82
2019-01-25T21:19:24.675Z,20.20
2019-01-25T21:21:53.158Z,20.60
2019-01-25T21:24:21.586Z,23.45
2019-01-25T21:26:50.221Z,20.48
2019-01-25T21:29:18.712Z,22.42
2019-01-25T21:31:47.167Z,21.65
2019-01-25T21:34:15.749Z,20.32
2019-01-25T21:36:44.350Z,22.55
2019-01-25T21:39:12.935Z,20.85
2019-01-25T21:41:41.624Z,21.97
2019-01-25T21:44:10.110Z,18.62
2019-01-25T21:46:40.319Z,21.37
2019-01-25T21:49:08.803Z,21.12
2019-01-25T21:51:37.299Z,20.80
2019-01-25T21:54:05.870Z,20.88
2019-01-25T21:56:35.005Z,22.13
2019-01-25T21:59:03.551Z,20.97
2019-01-25T22:01:32.032Z,20.97
2019-01-25T22:04:00.615Z,19.87
2019-01-25T22:06:29.316Z,20.72
2019-01-25T22:08:57.885Z,22.35
2019-01-25T22:11:26.322Z,21.20
2019-01-25T22:13:54.847Z,18.37
2019-01-25T22:16:23.328Z,21.73
2019-01-25T22:18:51.732Z,19.85
2019-01-25T22:21:20.550Z,19.35
2019-01-25T22:23:48.981Z,19.98
2019-01-25T22:26:17.560Z,18.55
2019-01-25T22:28:46.040Z,19.50
2019-01-25T22:31:14.520Z,18.17
2019-01-25T22:33:43.008Z,17.67
2019-01-25T22:36:11.483Z,18.00
2019-01-25T22:38:39.965Z,18.48
2019-01-25T22:41:08.446Z,19.70
2019-01-25T22:43:36.880Z,17.65
2019-01-25T22:46:06.124Z,17.90
2019-01-25T22:48:34.707Z,17.35
2019-01-25T22:51:03.293Z,16.35
2019-01-25T22:53:31.736Z,16.40
2019-01-25T22:56:00.253Z,14.95
2019-01-25T22:58:28.680Z,16.65
2019-01-25T23:01:02.748Z,15.80
2019-01-25T23:03:41.619Z,14.78
2019-01-25T23:06:27.046Z,16.45
2019-01-25T23:08:56.727Z,16.77
2019-01-25T23:11:26.482Z,17.62
2019-01-25T23:13:54.995Z,17.60
2019-01-25T23:16:23.531Z,18.17
2019-01-25T23:18:52.830Z,16.37
2019-01-25T23:21:21.302Z,17.62
2019-01-25T23:23:49.894Z,17.00
2019-01-25T23:26:18.377Z,16.45
2019-01-25T23:28:46.805Z,17.52
2019-01-25T23:31:15.297Z,17.65
2019-01-25T23:33:43.818Z,15.72
2019-01-25T23:36:12.290Z,18.15
2019-01-25T23:38:40.882Z,17.07
2019-01-25T23:41:22.075Z,16.32
2019-01-25T23:43:50.645Z,16.75
2019-01-25T23:46:19.122Z,17.40
2019-01-25T23:48:47.583Z,17.45
2019-01-25T23:51:22.793Z,17.67
2019-01-25T23:53:46.206Z,16.45
2019-01-25T23:56:14.688Z,18.25
2019-01-25T23:58:43.169Z,17.05
